createdAt,value
2022-11-26T00:01:16.521Z,101536.44
2022-11-26T00:03:44.929Z,101543.50
2022-11-26T00:06:26.824Z,101532.78
2022-11-26T00:08:54.694Z,101532.78
2022-11-26T00:11:22.774Z,101531.31
2022-11-26T00:13:51.986Z,101531.06
2022-11-26T00:16:19.897Z,101538.13
2022-11-26T00:18:47.813Z,101534.50
2022-11-26T00:21:22.045Z,101529.13
2022-11-26T00:23:50.494Z,101543.50
2022-11-26T00:26:21.238Z,101541.81
2022-11-26T00:28:54.273Z,101542.56
2022-11-26T00:31:22.624Z,101543.50
2022-11-26T00:33:50.492Z,101545.22
2022-11-26T00:36:22.039Z,101538.13
2022-11-26T00:38:54.946Z,101545.22
2022-11-26T00:41:25.151Z,101549.75
2022-11-26T00:43:54.374Z,101547.19
2022-11-26T00:46:23.349Z,101548.88
2022-11-26T00:48:52.035Z,101548.88
2022-11-26T00:51:22.911Z,101551.56
2022-11-26T00:53:51.903Z,101559.59
2022-11-26T00:56:21.509Z,101559.59
2022-11-26T00:58:51.107Z,101552.53
2022-11-26T01:01:22.648Z,101554.25
2022-11-26T01:03:50.964Z,101546.31
2022-11-26T01:06:21.325Z,101552.41
2022-11-26T01:08:49.849Z,101537.38
2022-11-26T01:11:20.395Z,101554.25
2022-11-26T01:13:50.043Z,101554.25
2022-11-26T01:16:23.809Z,101559.59
2022-11-26T01:18:53.615Z,101556.94
2022-11-26T01:21:22.840Z,101550.59
2022-11-26T01:23:50.869Z,101556.94
2022-11-26T01:26:22.696Z,101554.25
2022-11-26T01:28:51.315Z,101558.66
2022-11-26T01:31:23.471Z,101561.59
2022-11-26T01:33:51.974Z,101554.38
2022-11-26T01:36:23.855Z,101565.72
2022-11-26T01:38:53.354Z,101570.34
2022-11-26T01:41:30.738Z,101568.41
2022-11-26T01:43:59.824Z,101566.72
2022-11-26T01:46:32.028Z,101568.41
2022-11-26T01:49:22.588Z,101573.78
2022-11-26T01:51:54.637Z,101571.22
2022-11-26T01:54:22.766Z,101565.84
2022-11-26T01:56:53.583Z,101570.34
2022-11-26T01:59:25.758Z,101572.06
2022-11-26T02:01:58.722Z,101572.06
2022-11-26T02:04:29.547Z,101581.94
2022-11-26T02:06:58.634Z,101591.81
2022-11-26T02:09:29.035Z,101591.81
2022-11-26T02:11:57.554Z,101588.19
2022-11-26T02:14:28.006Z,101587.31
2022-11-26T02:17:14.638Z,101594.38
2022-11-26T02:20:14.999Z,101588.19
2022-11-26T02:23:18.104Z,101586.44
2022-11-26T02:26:18.339Z,101592.81
2022-11-26T02:29:04.224Z,101597.19
2022-11-26T02:31:38.468Z,101592.81
2022-11-26T02:34:14.811Z,101600.63
2022-11-26T02:36:50.680Z,101604.28
2022-11-26T02:39:21.548Z,101597.19
2022-11-26T02:41:52.313Z,101594.63
2022-11-26T02:44:24.264Z,101597.19
2022-11-26T02:46:58.655Z,101609.66
2022-11-26T02:49:28.496Z,101602.56
2022-11-26T02:52:01.107Z,101615.03
2022-11-26T02:54:29.989Z,101617.72
2022-11-26T02:56:59.290Z,101611.34
2022-11-26T02:59:27.415Z,101604.28
2022-11-26T03:02:00.517Z,101611.34
2022-11-26T03:04:34.023Z,101612.22
2022-11-26T03:07:04.463Z,101613.06
2022-11-26T03:09:41.569Z,101613.06
2022-11-26T03:12:10.141Z,101604.28
2022-11-26T03:14:38.412Z,101608.78
2022-11-26T03:17:07.947Z,101618.41
2022-11-26T03:19:35.778Z,101618.41
2022-11-26T03:22:03.661Z,101614.78
2022-11-26T03:24:31.659Z,101623.78
2022-11-26T03:26:59.775Z,101625.53
2022-11-26T03:29:27.903Z,101629.16
2022-11-26T03:31:55.871Z,101618.41
2022-11-26T03:34:25.470Z,101625.63
2022-11-26T03:36:53.684Z,101623.78
2022-11-26T03:39:21.695Z,101622.97
2022-11-26T03:41:49.563Z,101622.09
2022-11-26T03:44:17.428Z,101629.16
2022-11-26T03:46:45.295Z,101632.59
2022-11-26T03:49:13.356Z,101627.47
2022-11-26T03:51:42.693Z,101635.38
2022-11-26T03:54:10.900Z,101639.91
2022-11-26T03:56:38.736Z,101639.91
2022-11-26T03:59:07.215Z,101635.63
2022-11-26T04:01:35.433Z,101641.63
2022-11-26T04:04:03.587Z,101639.91
2022-11-26T04:06:31.484Z,101630.88
2022-11-26T04:09:00.755Z,101636.25
2022-11-26T04:11:28.615Z,101638.94
2022-11-26T04:13:56.565Z,101639.06
2022-11-26T04:16:24.534Z,101647.00
2022-11-26T04:18:52.503Z,101647.00
2022-11-26T04:21:20.411Z,101659.44
2022-11-26T04:23:48.315Z,101659.44
2022-11-26T04:26:17.748Z,101662.13
2022-11-26T04:28:45.744Z,101659.44
2022-11-26T04:31:13.792Z,101653.06
2022-11-26T04:33:41.699Z,101654.06
2022-11-26T04:36:10.351Z,101669.31
2022-11-26T04:38:38.571Z,101680.91
2022-11-26T04:41:06.704Z,101675.53
2022-11-26T04:43:36.114Z,101670.16
2022-11-26T04:46:04.006Z,101680.91
2022-11-26T04:48:31.918Z,101680.03
2022-11-26T04:50:59.755Z,101689.94
2022-11-26T04:53:27.624Z,101691.66
2022-11-26T04:55:55.491Z,101690.66
2022-11-26T04:58:23.411Z,101691.66
2022-11-26T05:00:53.078Z,101687.97
2022-11-26T05:03:21.077Z,101694.31
2022-11-26T05:05:49.053Z,101691.66
2022-11-26T05:08:16.921Z,101695.31
2022-11-26T05:10:44.796Z,101697.00
2022-11-26T05:13:12.648Z,101694.31
2022-11-26T05:15:40.502Z,101693.34
2022-11-26T05:18:09.929Z,101695.06
2022-11-26T05:20:37.797Z,101708.50
2022-11-26T05:23:05.689Z,101707.63
2022-11-26T05:25:33.546Z,101706.06
2022-11-26T05:28:01.444Z,101714.81
2022-11-26T05:30:29.397Z,101714.81
2022-11-26T05:32:57.261Z,101712.00
2022-11-26T05:35:26.519Z,101706.06
2022-11-26T05:37:56.711Z,101705.81
2022-11-26T05:40:24.585Z,101714.81
2022-11-26T05:42:52.461Z,101714.00
2022-11-26T05:45:20.318Z,101722.03
2022-11-26T05:47:48.415Z,101720.19
2022-11-26T05:50:16.223Z,101727.28
2022-11-26T05:52:45.435Z,101723.00
2022-11-26T05:55:13.304Z,101727.28
2022-11-26T05:57:41.175Z,101732.66
2022-11-26T06:00:11.090Z,101727.28
2022-11-26T06:02:39.340Z,101732.66
2022-11-26T06:05:08.195Z,101727.28
2022-11-26T06:07:39.356Z,101730.81
2022-11-26T06:10:12.297Z,101744.22
2022-11-26T06:12:40.171Z,101745.09
2022-11-26T06:15:08.852Z,101744.22
2022-11-26T06:17:36.806Z,101745.97
2022-11-26T06:20:05.419Z,101739.72
2022-11-26T06:22:37.820Z,101740.19
2022-11-26T06:25:06.359Z,101749.59
2022-11-26T06:27:35.690Z,101724.75
2022-11-26T06:30:04.721Z,101749.00
2022-11-26T06:32:33.111Z,101725.00
2022-11-26T06:35:01.018Z,101761.19
2022-11-26T06:37:28.979Z,101753.38
2022-11-26T06:39:56.879Z,101766.56
2022-11-26T06:42:24.763Z,101767.56
2022-11-26T06:44:59.464Z,101764.88
2022-11-26T06:47:28.130Z,101761.19
2022-11-26T06:49:56.005Z,101759.50
2022-11-26T06:52:23.870Z,101759.50
2022-11-26T06:54:51.797Z,101768.50
2022-11-26T06:57:19.668Z,101775.63
2022-11-26T06:59:47.492Z,101775.63
2022-11-26T07:02:16.803Z,101780.97
2022-11-26T07:04:44.722Z,101773.75
2022-11-26T07:07:12.646Z,101783.66
2022-11-26T07:09:40.618Z,101781.81
2022-11-26T07:12:08.738Z,101788.06
2022-11-26T07:14:36.974Z,101781.81
2022-11-26T07:17:05.164Z,101795.13
2022-11-26T07:19:34.527Z,101797.81
2022-11-26T07:22:02.475Z,101804.16
2022-11-26T07:24:30.509Z,101797.91
2022-11-26T07:26:58.580Z,101810.41
2022-11-26T07:29:26.617Z,101809.53
2022-11-26T07:31:54.538Z,101821.97
2022-11-26T07:34:22.635Z,101811.22
2022-11-26T07:36:56.670Z,101811.22
2022-11-26T07:39:25.846Z,101808.53
2022-11-26T07:41:53.767Z,101805.84
2022-11-26T07:44:21.683Z,101807.81
2022-11-26T07:46:49.626Z,101808.66
2022-11-26T07:49:17.558Z,101811.47
2022-11-26T07:51:45.591Z,101820.50
2022-11-26T07:54:14.986Z,101821.38
2022-11-26T07:56:42.962Z,101825.00
2022-11-26T07:59:12.117Z,101818.78
2022-11-26T08:01:40.179Z,101824.16
2022-11-26T08:04:08.251Z,101826.97
2022-11-26T08:06:36.154Z,101833.16
2022-11-26T08:09:05.422Z,101834.91
2022-11-26T08:11:35.444Z,101835.84
2022-11-26T08:14:05.314Z,101844.78
2022-11-26T08:16:33.586Z,101848.31
2022-11-26T08:19:03.661Z,101844.78
2022-11-26T08:21:31.559Z,101849.28
2022-11-26T08:23:59.834Z,101856.38
2022-11-26T08:26:35.039Z,101850.16
2022-11-26T08:29:06.805Z,101860.00
2022-11-26T08:31:35.045Z,101852.94
2022-11-26T08:34:04.236Z,101854.66
2022-11-26T08:36:32.529Z,101860.00
2022-11-26T08:39:01.382Z,101859.19
2022-11-26T08:41:29.372Z,101865.38
2022-11-26T08:44:06.546Z,101870.75
2022-11-26T08:46:37.084Z,101870.75
2022-11-26T08:49:05.180Z,101883.22
2022-11-26T08:51:33.215Z,101881.50
2022-11-26T08:54:01.084Z,101879.56
2022-11-26T08:56:29.031Z,101884.06
2022-11-26T08:58:57.044Z,101886.63
2022-11-26T09:01:26.880Z,101885.78
2022-11-26T09:03:58.138Z,101886.63
2022-11-26T09:06:28.108Z,101884.94
2022-11-26T09:09:15.294Z,101857.72
2022-11-26T09:11:45.874Z,101890.28
2022-11-26T09:14:15.178Z,101893.72
2022-11-26T09:16:43.108Z,101891.16
2022-11-26T09:19:14.173Z,101895.44
2022-11-26T09:21:42.107Z,101902.50
2022-11-26T09:24:10.154Z,101892.75
2022-11-26T09:26:38.101Z,101900.81
2022-11-26T09:29:06.425Z,101900.81
2022-11-26T09:31:34.572Z,101908.75
2022-11-26T09:34:03.661Z,101903.25
2022-11-26T09:36:33.112Z,101905.94
2022-11-26T09:39:01.521Z,101911.31
2022-11-26T09:41:42.196Z,101909.50
2022-11-26T09:44:22.956Z,101906.81
2022-11-26T09:47:11.911Z,101904.25
2022-11-26T09:49:55.755Z,101908.75
2022-11-26T09:52:28.024Z,101908.88
2022-11-26T09:55:05.717Z,101907.03
2022-11-26T09:57:41.190Z,101911.53
2022-11-26T10:00:22.436Z,101918.63
2022-11-26T10:02:53.439Z,101918.63
2022-11-26T10:05:23.510Z,101925.84
2022-11-26T10:08:07.153Z,101929.34
2022-11-26T10:10:42.893Z,101937.41
2022-11-26T10:13:23.081Z,101929.34
2022-11-26T10:16:01.176Z,101929.34
2022-11-26T10:18:41.469Z,101932.03
2022-11-26T10:21:32.592Z,101940.09
2022-11-26T10:24:20.696Z,101943.75
2022-11-26T10:26:50.245Z,101940.09
2022-11-26T10:29:23.474Z,101924.97
2022-11-26T10:31:56.305Z,101933.78
2022-11-26T10:34:33.382Z,101940.84
2022-11-26T10:37:03.925Z,101933.78
2022-11-26T10:39:33.280Z,101940.09
2022-11-26T10:42:05.477Z,101936.34
2022-11-26T10:44:37.373Z,101942.56
2022-11-26T10:47:27.547Z,101928.28
2022-11-26T10:49:57.012Z,101940.84
2022-11-26T10:52:28.495Z,101935.47
2022-11-26T10:55:20.930Z,101932.81
2022-11-26T10:57:54.260Z,101939.16
2022-11-26T11:00:37.699Z,101941.84
2022-11-26T11:03:07.784Z,101947.19
2022-11-26T11:05:35.969Z,101943.66
2022-11-26T11:08:04.199Z,101921.47
2022-11-26T11:10:34.554Z,101942.78
2022-11-26T11:13:10.336Z,101949.03
2022-11-26T11:15:40.471Z,101947.44
2022-11-26T11:18:18.806Z,101936.91
2022-11-26T11:20:55.059Z,101948.91
2022-11-26T11:23:39.952Z,101952.56
2022-11-26T11:26:19.359Z,101948.91
2022-11-26T11:28:50.073Z,101949.13
2022-11-26T11:31:21.248Z,101959.66
2022-11-26T11:33:50.200Z,101952.56
2022-11-26T11:36:28.581Z,101952.56
2022-11-26T11:38:58.518Z,101962.44
2022-11-26T11:41:34.459Z,101954.28
2022-11-26T11:44:07.649Z,101955.97
2022-11-26T11:47:13.000Z,101964.03
2022-11-26T11:49:51.991Z,101956.22
2022-11-26T11:52:31.904Z,101954.28
2022-11-26T11:55:07.257Z,101966.72
2022-11-26T11:58:05.918Z,101966.72
2022-11-26T12:00:42.350Z,101956.22
2022-11-26T12:03:44.732Z,101954.50
2022-11-26T12:06:22.358Z,101957.94
2022-11-26T12:09:01.805Z,101954.28
2022-11-26T12:11:43.355Z,101955.16
2022-11-26T12:14:22.157Z,101964.03
2022-11-26T12:16:55.017Z,101965.03
2022-11-26T12:19:29.999Z,101965.88
2022-11-26T12:22:03.061Z,101959.66
2022-11-26T12:24:40.682Z,101965.03
2022-11-26T12:27:17.734Z,101963.19
2022-11-26T12:29:53.249Z,101956.97
2022-11-26T12:32:26.854Z,101966.72
2022-11-26T12:34:59.852Z,101938.63
2022-11-26T12:37:31.683Z,101965.03
2022-11-26T12:40:05.177Z,101965.78
2022-11-26T12:42:42.034Z,101964.03
2022-11-26T12:45:21.262Z,101961.34
2022-11-26T12:47:55.836Z,101961.34
2022-11-26T12:50:35.094Z,101961.34
2022-11-26T12:53:29.403Z,101966.72
2022-11-26T12:56:05.715Z,101968.47
2022-11-26T12:58:42.199Z,101966.72
2022-11-26T13:01:12.332Z,101966.72
2022-11-26T13:03:41.615Z,101966.72
2022-11-26T13:06:22.455Z,101968.69
2022-11-26T13:08:56.027Z,101972.84
2022-11-26T13:11:33.474Z,101968.47
2022-11-26T13:14:09.144Z,101965.03
2022-11-26T13:16:45.681Z,101957.72
2022-11-26T13:19:19.938Z,101963.91
2022-11-26T13:22:04.665Z,101971.88
2022-11-26T13:24:51.773Z,101966.50
2022-11-26T13:27:33.053Z,101966.72
2022-11-26T13:30:10.679Z,101962.09
2022-11-26T13:33:11.789Z,101965.78
2022-11-26T13:36:07.071Z,101968.47
2022-11-26T13:38:50.068Z,101968.47
2022-11-26T13:41:43.599Z,101948.91
2022-11-26T13:44:44.206Z,101961.34
2022-11-26T13:47:17.005Z,101961.34
2022-11-26T13:49:51.328Z,101960.63
2022-11-26T13:52:24.577Z,101964.91
2022-11-26T13:54:58.420Z,101961.34
2022-11-26T13:57:31.530Z,101966.72
2022-11-26T14:00:00.464Z,101968.69
2022-11-26T14:02:47.460Z,101974.66
2022-11-26T14:05:16.951Z,101979.19
2022-11-26T14:07:46.882Z,101977.47
2022-11-26T14:10:43.526Z,101968.47
2022-11-26T14:13:13.557Z,101937.78
2022-11-26T14:16:03.568Z,101936.03
2022-11-26T14:19:00.669Z,101973.81
2022-11-26T14:21:30.715Z,101979.19
2022-11-26T14:24:01.518Z,101974.66
2022-11-26T14:26:34.295Z,101980.91
2022-11-26T14:29:12.488Z,101975.53
2022-11-26T14:31:43.236Z,101940.25
2022-11-26T14:34:15.971Z,101971.88
2022-11-26T14:36:56.289Z,101983.47
2022-11-26T14:39:26.623Z,101970.16
2022-11-26T14:42:01.881Z,101971.88
2022-11-26T14:44:33.950Z,101973.59
2022-11-26T14:47:10.979Z,101967.38
2022-11-26T14:49:42.555Z,101960.41
2022-11-26T14:52:19.933Z,101961.81
2022-11-26T14:54:53.399Z,101984.34
2022-11-26T14:57:28.152Z,101978.97
2022-11-26T14:59:57.939Z,101978.97
2022-11-26T15:02:28.134Z,101976.28
2022-11-26T15:05:01.514Z,101980.69
2022-11-26T15:07:30.836Z,101980.69
2022-11-26T15:10:05.927Z,101980.69
2022-11-26T15:12:36.239Z,101975.31
2022-11-26T15:15:05.629Z,101975.31
2022-11-26T15:17:35.419Z,101988.72
2022-11-26T15:20:07.597Z,101987.75
2022-11-26T15:22:39.291Z,101989.94
2022-11-26T15:25:18.387Z,101992.28
2022-11-26T15:27:54.590Z,101999.47
2022-11-26T15:30:24.552Z,102002.16
2022-11-26T15:32:58.817Z,102002.16
2022-11-26T15:35:26.856Z,102004.84
2022-11-26T15:37:54.809Z,101997.66
2022-11-26T15:40:26.380Z,102006.66
2022-11-26T15:42:58.597Z,102003.84
2022-11-26T15:45:36.223Z,102009.22
2022-11-26T15:48:05.320Z,102009.22
2022-11-26T15:50:35.107Z,102005.81
2022-11-26T15:53:07.784Z,101997.88
2022-11-26T15:55:38.887Z,101999.47
2022-11-26T15:58:16.237Z,101991.41
2022-11-26T16:00:44.211Z,101996.78
2022-11-26T16:03:34.173Z,101993.22
2022-11-26T16:06:03.079Z,102001.28
2022-11-26T16:08:32.223Z,102002.16
2022-11-26T16:11:09.995Z,102002.16
2022-11-26T16:13:37.880Z,102007.53
2022-11-26T16:16:09.707Z,102009.22
2022-11-26T16:18:41.044Z,102003.03
2022-11-26T16:21:17.022Z,102003.84
2022-11-26T16:23:45.191Z,102003.97
2022-11-26T16:26:17.802Z,102008.41
2022-11-26T16:28:46.234Z,102009.47
2022-11-26T16:31:14.844Z,102010.22
2022-11-26T16:33:43.613Z,102012.91
2022-11-26T16:36:23.394Z,102007.53
2022-11-26T16:38:51.836Z,102011.09
2022-11-26T16:41:22.706Z,102008.41
2022-11-26T16:43:51.244Z,102010.97
2022-11-26T16:46:21.023Z,102011.19
2022-11-26T16:48:49.423Z,102025.34
2022-11-26T16:51:17.657Z,102025.34
2022-11-26T16:53:45.725Z,102014.81
2022-11-26T16:56:23.306Z,102004.94
2022-11-26T16:58:52.138Z,101982.03
2022-11-26T17:01:20.283Z,102006.28
2022-11-26T17:03:48.273Z,102017.28
2022-11-26T17:06:22.157Z,102019.97
2022-11-26T17:08:50.278Z,102020.94
2022-11-26T17:11:18.787Z,102025.34
2022-11-26T17:13:48.211Z,102021.72
2022-11-26T17:16:19.961Z,102013.66
2022-11-26T17:18:50.015Z,102019.97
2022-11-26T17:21:18.023Z,102017.28
2022-11-26T17:23:45.956Z,102016.56
2022-11-26T17:26:20.133Z,102014.72
2022-11-26T17:28:50.463Z,102016.34
2022-11-26T17:31:18.957Z,102020.84
2022-11-26T17:33:46.907Z,102032.44
2022-11-26T17:36:17.590Z,102029.75
2022-11-26T17:38:46.214Z,102030.59
2022-11-26T17:41:14.717Z,102029.75
2022-11-26T17:43:43.181Z,102033.28
2022-11-26T17:46:21.917Z,102025.56
2022-11-26T17:48:55.548Z,102030.72
2022-11-26T17:51:26.943Z,102032.44
2022-11-26T17:53:54.845Z,102028.91
2022-11-26T17:56:25.078Z,102032.44
2022-11-26T17:58:52.939Z,102037.81
2022-11-26T18:01:22.529Z,102020.94
2022-11-26T18:03:52.388Z,102023.41
2022-11-26T18:06:27.436Z,102032.44
2022-11-26T18:08:55.291Z,102019.03
2022-11-26T18:11:43.788Z,102027.09
2022-11-26T18:14:11.767Z,102014.00
2022-11-26T18:16:41.320Z,102016.34
2022-11-26T18:19:10.935Z,102025.34
2022-11-26T18:21:39.602Z,102017.41
2022-11-26T18:24:09.990Z,102019.03
2022-11-26T18:26:38.422Z,102021.72
2022-11-26T18:29:06.375Z,102026.09
2022-11-26T18:31:39.509Z,102020.84
2022-11-26T18:34:09.635Z,102027.91
2022-11-26T18:36:37.522Z,102018.03
2022-11-26T18:39:06.155Z,102024.28
2022-11-26T18:41:34.354Z,102019.75
2022-11-26T18:44:04.025Z,102018.91
2022-11-26T18:46:32.854Z,102030.50
2022-11-26T18:49:01.105Z,102026.84
2022-11-26T18:51:30.701Z,102021.47
2022-11-26T18:53:58.645Z,102019.75
2022-11-26T18:56:26.576Z,102019.75
2022-11-26T18:58:54.967Z,102013.75
2022-11-26T19:01:24.865Z,102019.75
2022-11-26T19:03:53.527Z,102013.53
2022-11-26T19:06:24.576Z,102016.34
2022-11-26T19:08:58.863Z,102018.03
2022-11-26T19:11:27.842Z,102018.03
2022-11-26T19:13:57.505Z,101993.50
2022-11-26T19:16:26.542Z,102014.59
2022-11-26T19:18:54.894Z,102026.00
2022-11-26T19:21:25.549Z,102027.81
2022-11-26T19:23:56.580Z,102030.50
2022-11-26T19:26:24.915Z,102032.22
2022-11-26T19:28:53.331Z,102032.22
2022-11-26T19:31:23.876Z,101997.91
2022-11-26T19:33:55.266Z,102032.22
2022-11-26T19:36:23.563Z,102032.22
2022-11-26T19:38:57.207Z,102038.44
2022-11-26T19:41:26.189Z,102038.44
2022-11-26T19:43:54.536Z,102042.97
2022-11-26T19:46:24.777Z,102039.53
2022-11-26T19:48:55.585Z,102042.97
2022-11-26T19:51:26.368Z,102041.22
2022-11-26T19:53:57.226Z,102034.16
2022-11-26T19:56:27.522Z,102042.97
2022-11-26T19:58:57.897Z,102048.34
2022-11-26T20:01:27.510Z,102042.97
2022-11-26T20:03:55.571Z,102042.97
2022-11-26T20:06:27.018Z,102046.59
2022-11-26T20:08:58.151Z,102011.88
2022-11-26T20:11:26.861Z,102048.34
2022-11-26T20:13:56.157Z,102044.91
2022-11-26T20:16:26.993Z,102051.03
2022-11-26T20:18:55.603Z,102044.91
2022-11-26T20:21:25.725Z,102048.34
2022-11-26T20:23:56.480Z,102048.13
2022-11-26T20:26:27.983Z,102009.50
2022-11-26T20:28:56.922Z,102040.16
2022-11-26T20:31:24.895Z,102047.34
2022-11-26T20:33:53.251Z,102038.53
2022-11-26T20:36:22.950Z,102050.03
2022-11-26T20:38:53.474Z,102042.09
2022-11-26T20:41:21.631Z,102050.81
2022-11-26T20:43:56.769Z,102044.44
2022-11-26T20:46:27.339Z,102041.78
2022-11-26T20:48:55.418Z,102039.84
2022-11-26T20:51:23.847Z,102033.47
2022-11-26T20:53:53.031Z,102027.69
2022-11-26T20:56:23.560Z,102036.28
2022-11-26T20:58:53.734Z,102046.16
2022-11-26T21:01:23.413Z,102039.94
2022-11-26T21:03:52.007Z,102039.06
2022-11-26T21:06:28.950Z,102042.75
2022-11-26T21:08:57.670Z,102040.06
2022-11-26T21:11:25.612Z,102031.13
2022-11-26T21:13:55.620Z,102037.38
2022-11-26T21:16:23.681Z,102032.00
2022-11-26T21:18:53.720Z,102032.22
2022-11-26T21:21:22.494Z,102042.75
2022-11-26T21:23:50.706Z,102048.13
2022-11-26T21:26:21.376Z,102049.06
2022-11-26T21:28:51.828Z,102041.88
2022-11-26T21:31:21.986Z,102045.44
2022-11-26T21:33:56.030Z,102040.06
2022-11-26T21:36:24.963Z,102042.75
2022-11-26T21:38:52.989Z,102047.25
2022-11-26T21:41:22.190Z,102043.69
2022-11-26T21:43:50.979Z,102048.13
2022-11-26T21:46:22.354Z,102043.69
2022-11-26T21:48:52.915Z,102045.44
2022-11-26T21:51:21.671Z,102035.63
2022-11-26T21:53:50.952Z,102042.75
2022-11-26T21:56:21.209Z,102047.25
2022-11-26T21:58:49.926Z,102036.50
2022-11-26T22:01:21.380Z,102037.38
2022-11-26T22:03:51.147Z,102035.63
2022-11-26T22:06:20.726Z,102036.50
2022-11-26T22:08:49.157Z,102035.75
2022-11-26T22:11:18.763Z,102033.94
2022-11-26T22:13:47.163Z,102033.94
2022-11-26T22:16:16.855Z,102039.31
2022-11-26T22:18:47.128Z,102044.69
2022-11-26T22:21:17.192Z,102003.91
2022-11-26T22:23:45.185Z,102033.06
2022-11-26T22:26:13.373Z,102031.25
2022-11-26T22:28:41.621Z,101999.59
2022-11-26T22:31:11.672Z,102030.50
2022-11-26T22:33:40.078Z,102024.91
2022-11-26T22:36:10.401Z,102026.75
2022-11-26T22:38:39.358Z,102028.56
2022-11-26T22:41:09.357Z,102024.91
2022-11-26T22:43:37.936Z,101996.94
2022-11-26T22:46:06.819Z,102035.63
2022-11-26T22:48:35.680Z,102034.69
2022-11-26T22:51:04.306Z,102034.69
2022-11-26T22:53:34.584Z,102029.44
2022-11-26T22:56:03.997Z,102024.91
2022-11-26T22:58:33.922Z,102032.22
2022-11-26T23:01:03.504Z,102037.38
2022-11-26T23:03:33.921Z,102033.94
2022-11-26T23:06:04.371Z,102045.53
2022-11-26T23:08:34.600Z,101999.59
2022-11-26T23:11:06.597Z,102035.63
2022-11-26T23:13:34.639Z,102035.63
2022-11-26T23:16:02.882Z,102032.00
2022-11-26T23:18:30.875Z,102033.06
2022-11-26T23:21:06.848Z,102032.00
2022-11-26T23:23:37.711Z,102037.38
2022-11-26T23:26:07.081Z,102049.81
2022-11-26T23:28:36.646Z,102038.22
2022-11-26T23:31:07.563Z,102044.44
2022-11-26T23:33:36.716Z,102034.69
2022-11-26T23:36:04.954Z,102035.63
2022-11-26T23:38:33.106Z,102033.72
2022-11-26T23:41:04.736Z,102037.38
2022-11-26T23:43:34.535Z,102042.75
2022-11-26T23:46:03.143Z,102043.59
2022-11-26T23:48:31.385Z,102051.75
2022-11-26T23:50:59.447Z,102041.88
2022-11-26T23:53:27.683Z,102048.13
2022-11-26T23:55:55.607Z,102041.00
2022-11-26T23:58:24.958Z,102047.25
